createdAt,value
2019-05-01T00:00:27.588Z,64.75
2019-05-01T00:03:00.586Z,64.62
2019-05-01T00:05:40.947Z,64.15
2019-05-01T00:08:11.037Z,63.48
2019-05-01T00:10:40.861Z,71.95
2019-05-01T00:13:10.714Z,66.33
2019-05-01T00:15:40.605Z,71.22
2019-05-01T00:18:10.375Z,69.03
2019-05-01T00:20:40.259Z,73.78
2019-05-01T00:23:10.080Z,81.78
2019-05-01T00:25:39.929Z,80.53
2019-05-01T00:28:10.009Z,72.60
2019-05-01T00:30:40.097Z,69.50
2019-05-01T00:33:10.043Z,71.35
2019-05-01T00:35:40.028Z,80.40
2019-05-01T00:38:09.844Z,74.20
2019-05-01T00:40:39.707Z,77.78
2019-05-01T00:43:09.563Z,72.97
2019-05-01T00:45:39.452Z,68.52
2019-05-01T00:48:09.449Z,78.47
2019-05-01T00:50:39.371Z,76.25
2019-05-01T00:53:09.178Z,66.95
2019-05-01T00:55:40.638Z,79.43
2019-05-01T00:58:20.725Z,70.57
2019-05-01T01:01:08.237Z,70.92
2019-05-01T01:03:39.003Z,62.73
2019-05-01T01:08:38.158Z,69.92
2019-05-01T01:11:07.984Z,71.02
2019-05-01T01:13:37.818Z,71.20
2019-05-01T01:16:07.705Z,75.37
2019-05-01T01:18:37.592Z,67.62
2019-05-01T01:21:07.421Z,69.17
2019-05-01T01:23:37.487Z,68.65
2019-05-01T01:26:07.518Z,69.47
2019-05-01T01:28:37.378Z,71.07
2019-05-01T01:31:07.323Z,68.35
2019-05-01T01:33:37.075Z,71.92
2019-05-01T01:36:06.849Z,68.33
2019-05-01T01:38:36.607Z,68.83
2019-05-01T01:41:07.511Z,69.80
2019-05-01T01:43:42.024Z,65.28
2019-05-01T01:46:19.456Z,64.77
2019-05-01T01:48:49.258Z,66.17
2019-05-01T01:51:19.621Z,67.70
2019-05-01T01:53:50.355Z,71.82
2019-05-01T01:56:20.572Z,71.40
2019-05-01T01:58:51.001Z,65.25
2019-05-01T02:01:22.513Z,69.62
2019-05-01T02:04:00.671Z,64.72
2019-05-01T02:06:30.665Z,64.90
2019-05-01T02:09:00.590Z,85.38
2019-05-01T02:11:32.085Z,78.25
2019-05-01T02:14:01.835Z,67.58
2019-05-01T02:16:31.744Z,74.15
2019-05-01T02:19:01.544Z,69.12
2019-05-01T02:21:31.375Z,66.35
2019-05-01T02:24:01.233Z,66.80
2019-05-01T02:26:32.738Z,80.45
2019-05-01T02:29:09.976Z,71.12
2019-05-01T02:31:41.983Z,71.90
2019-05-01T02:34:12.153Z,68.35
2019-05-01T02:36:43.763Z,64.72
2019-05-01T02:39:16.893Z,74.45
2019-05-01T02:41:47.969Z,74.72
2019-05-01T02:44:26.051Z,74.92
2019-05-01T02:46:58.740Z,83.17
2019-05-01T02:49:43.572Z,88.12
2019-05-01T02:52:14.360Z,77.60
2019-05-01T02:54:46.683Z,67.90
2019-05-01T02:57:19.176Z,64.35
2019-05-01T02:59:51.979Z,63.83
2019-05-01T03:02:25.154Z,63.05
2019-05-01T03:04:56.959Z,63.90
2019-05-01T03:07:29.598Z,63.68
2019-05-01T03:10:00.282Z,65.70
2019-05-01T03:17:36.574Z,87.47
2019-05-01T03:20:24.096Z,93.20
2019-05-01T03:23:11.883Z,91.25
2019-05-01T03:25:42.169Z,71.35
2019-05-01T03:28:12.703Z,76.47
2019-05-01T03:30:42.595Z,72.00
2019-05-01T03:33:12.951Z,66.77
2019-05-01T03:35:43.223Z,80.28
2019-05-01T03:38:14.144Z,80.28
2019-05-01T03:40:43.959Z,89.45
2019-05-01T03:43:13.794Z,83.92
2019-05-01T03:45:44.254Z,90.00
2019-05-01T03:48:14.076Z,90.00
2019-05-01T03:50:46.920Z,86.60
2019-05-01T03:53:15.519Z,82.92
2019-05-01T03:55:45.991Z,76.02
2019-05-01T03:58:16.028Z,73.62
2019-05-01T04:00:59.352Z,86.10
2019-05-01T04:03:31.196Z,83.85
2019-05-01T04:06:00.948Z,83.78
2019-05-01T04:08:31.069Z,82.53
2019-05-01T04:11:01.157Z,73.45
2019-05-01T04:13:31.826Z,68.55
2019-05-01T04:18:30.804Z,73.92
2019-05-01T04:21:02.051Z,75.08
2019-05-01T04:23:31.956Z,86.10
2019-05-01T04:26:02.292Z,84.77
2019-05-01T04:28:36.826Z,82.10
2019-05-01T04:31:11.039Z,84.32
2019-05-01T04:33:42.579Z,78.17
2019-05-01T04:36:14.679Z,80.03
2019-05-01T04:38:44.770Z,96.28
2019-05-01T04:41:14.762Z,76.07
2019-05-01T04:43:44.606Z,73.05
2019-05-01T04:46:14.484Z,70.62
2019-05-01T04:48:44.485Z,62.27
2019-05-01T04:51:14.564Z,59.48
2019-05-01T04:53:44.517Z,67.03
2019-05-01T04:56:14.341Z,60.70
2019-05-01T04:58:44.285Z,61.25
2019-05-01T05:01:14.494Z,66.28
2019-05-01T05:03:46.189Z,66.62
2019-05-01T05:06:16.437Z,66.37
2019-05-01T05:08:46.585Z,62.65
2019-05-01T05:11:21.244Z,61.53
2019-05-01T05:14:10.552Z,56.25
2019-05-01T05:16:48.497Z,61.05
2019-05-01T05:19:18.576Z,65.17
2019-05-01T05:21:48.826Z,56.00
2019-05-01T05:24:19.363Z,54.93
2019-05-01T05:26:50.224Z,57.95
2019-05-01T05:29:20.450Z,54.27
2019-05-01T05:31:51.887Z,53.92
2019-05-01T05:34:25.634Z,49.18
2019-05-01T05:36:59.446Z,55.25
2019-05-01T05:39:36.380Z,52.33
2019-05-01T05:42:06.980Z,47.38
2019-05-01T05:47:06.083Z,49.08
2019-05-01T05:49:36.018Z,50.17
2019-05-01T05:52:20.560Z,49.38
2019-05-01T05:54:56.239Z,45.92
2019-05-01T05:57:33.424Z,50.40
2019-05-01T06:00:05.013Z,47.80
2019-05-01T06:02:38.309Z,44.18
2019-05-01T06:05:18.727Z,42.45
2019-05-01T06:08:07.613Z,45.00
2019-05-01T06:10:43.741Z,43.28
2019-05-01T06:13:30.196Z,44.03
2019-05-01T06:16:01.726Z,46.25
2019-05-01T06:18:34.827Z,44.33
2019-05-01T06:21:12.995Z,43.25
2019-05-01T06:23:45.842Z,39.60
2019-05-01T06:26:32.089Z,45.75
2019-05-01T06:29:02.542Z,43.58
2019-05-01T06:31:33.036Z,43.30
2019-05-01T06:36:33.423Z,39.15
2019-05-01T06:39:06.841Z,41.70
2019-05-01T06:41:42.769Z,41.50
2019-05-01T06:44:17.981Z,38.58
2019-05-01T06:46:52.781Z,37.80
2019-05-01T06:49:29.296Z,40.43
2019-05-01T06:51:57.907Z,37.30
2019-05-01T06:54:29.643Z,38.08
2019-05-01T06:57:01.450Z,38.05
2019-05-01T06:59:33.358Z,41.37
2019-05-01T07:02:04.218Z,37.83
2019-05-01T07:04:37.916Z,42.83
2019-05-01T07:07:07.123Z,38.23
2019-05-01T07:09:39.336Z,34.95
2019-05-01T07:12:10.786Z,36.95
2019-05-01T07:14:40.863Z,41.00
2019-05-01T07:17:13.559Z,37.58
2019-05-01T07:20:02.454Z,41.13
2019-05-01T07:22:32.391Z,36.30
2019-05-01T07:25:04.145Z,40.05
2019-05-01T07:27:34.449Z,33.28
2019-05-01T07:30:10.786Z,37.93
2019-05-01T07:32:42.794Z,33.53
2019-05-01T07:35:13.286Z,30.65
2019-05-01T07:37:43.377Z,38.20
2019-05-01T07:40:13.561Z,37.03
2019-05-01T07:42:51.380Z,39.63
2019-05-01T07:45:26.673Z,36.03
2019-05-01T07:48:01.121Z,36.05
2019-05-01T07:50:32.663Z,39.63
2019-05-01T07:53:01.776Z,32.35
2019-05-01T07:55:37.771Z,39.25
2019-05-01T07:58:15.668Z,33.10
2019-05-01T08:01:06.331Z,34.95
2019-05-01T08:03:37.983Z,33.58
2019-05-01T08:06:07.870Z,31.42
2019-05-01T08:08:39.583Z,36.83
2019-05-01T08:11:10.488Z,26.82
2019-05-01T08:13:40.211Z,26.40
2019-05-01T08:16:10.110Z,28.17
2019-05-01T08:18:41.543Z,29.87
2019-05-01T08:21:12.876Z,28.95
2019-05-01T08:23:46.931Z,27.62
2019-05-01T08:26:14.262Z,24.43
2019-05-01T08:29:06.851Z,32.63
2019-05-01T08:31:40.075Z,31.95
2019-05-01T08:34:11.585Z,32.65
2019-05-01T08:36:50.206Z,30.48
2019-05-01T08:39:20.139Z,32.35
2019-05-01T08:41:50.059Z,40.03
2019-05-01T08:44:24.959Z,32.08
2019-05-01T08:47:03.638Z,39.65
2019-05-01T08:49:42.221Z,27.15
2019-05-01T08:52:12.920Z,32.53
2019-05-01T08:54:40.845Z,34.85
2019-05-01T08:57:10.550Z,32.42
2019-05-01T08:59:40.436Z,31.97
2019-05-01T09:02:10.358Z,26.48
2019-05-01T09:04:40.172Z,35.38
2019-05-01T09:07:10.148Z,31.42
2019-05-01T09:09:45.309Z,29.37
2019-05-01T09:12:13.430Z,37.00
2019-05-01T09:14:43.383Z,25.82
2019-05-01T09:17:13.241Z,32.53
2019-05-01T09:19:43.088Z,23.73
2019-05-01T09:22:12.922Z,30.62
2019-05-01T09:24:42.780Z,23.80
2019-05-01T09:27:18.748Z,30.62
2019-05-01T09:29:51.668Z,26.90
2019-05-01T09:32:22.192Z,30.00
2019-05-01T09:34:52.103Z,34.33
2019-05-01T09:37:22.055Z,33.92
2019-05-01T09:39:51.993Z,30.80
2019-05-01T09:42:23.669Z,27.00
2019-05-01T09:44:53.512Z,38.92
2019-05-01T09:47:24.462Z,35.25
2019-05-01T09:49:55.910Z,31.10
2019-05-01T09:52:36.493Z,35.35
2019-05-01T09:55:23.000Z,30.35
2019-05-01T09:57:53.222Z,32.10
2019-05-01T10:00:25.026Z,32.75
2019-05-01T10:02:54.887Z,31.02
2019-05-01T10:05:29.104Z,24.35
2019-05-01T10:08:00.127Z,20.17
2019-05-01T10:10:29.324Z,23.15
2019-05-01T10:12:59.689Z,19.37
2019-05-01T10:15:29.599Z,17.80
2019-05-01T10:17:59.495Z,14.90
2019-05-01T10:20:29.339Z,23.00
2019-05-01T10:22:59.168Z,19.45
2019-05-01T10:25:29.043Z,17.07
2019-05-01T10:28:07.115Z,14.45
2019-05-01T10:30:39.302Z,18.87
2019-05-01T10:33:10.816Z,17.95
2019-05-01T10:35:43.453Z,15.32
2019-05-01T10:38:13.385Z,13.48
2019-05-01T10:40:43.157Z,19.17
2019-05-01T10:43:13.108Z,16.00
2019-05-01T10:45:42.939Z,18.60
2019-05-01T10:48:12.710Z,15.65
2019-05-01T10:50:42.826Z,18.73
2019-05-01T10:53:12.936Z,19.15
2019-05-01T10:55:42.860Z,18.75
2019-05-01T10:58:17.626Z,20.92
2019-05-01T11:00:45.909Z,16.93
2019-05-01T11:03:15.804Z,18.12
2019-05-01T11:05:55.760Z,18.80
2019-05-01T11:08:18.405Z,17.37
2019-05-01T11:10:48.220Z,18.17
2019-05-01T11:13:18.056Z,18.85
2019-05-01T11:15:48.853Z,14.85
2019-05-01T11:18:19.778Z,20.75
2019-05-01T11:20:49.629Z,17.65
2019-05-01T11:23:19.384Z,15.40
2019-05-01T11:25:49.272Z,17.75
2019-05-01T11:28:19.226Z,15.25
2019-05-01T11:30:49.123Z,27.25
2019-05-01T11:33:20.671Z,18.07
2019-05-01T11:35:54.874Z,16.87
2019-05-01T11:38:41.357Z,14.20
2019-05-01T11:41:12.816Z,16.25
2019-05-01T11:43:42.906Z,15.10
2019-05-01T11:46:12.801Z,18.10
2019-05-01T11:48:44.439Z,19.20
2019-05-01T11:51:14.231Z,17.15
2019-05-01T11:53:44.068Z,10.80
2019-05-01T11:56:14.795Z,16.95
2019-05-01T11:58:44.771Z,13.25
2019-05-01T12:01:16.197Z,13.35
2019-05-01T12:03:46.205Z,15.13
2019-05-01T12:06:22.608Z,20.32
2019-05-01T12:08:47.624Z,18.73
2019-05-01T12:11:19.177Z,16.70
2019-05-01T12:13:48.885Z,11.00
2019-05-01T12:16:23.297Z,17.75
2019-05-01T12:18:53.409Z,12.28
2019-05-01T12:21:23.209Z,13.88
2019-05-01T12:23:53.127Z,17.25
2019-05-01T12:26:22.898Z,12.35
2019-05-01T12:28:52.804Z,11.45
2019-05-01T12:31:24.208Z,12.65
2019-05-01T12:33:53.957Z,11.05
2019-05-01T12:36:35.668Z,9.25
2019-05-01T12:38:55.377Z,11.60
2019-05-01T12:41:26.916Z,7.97
2019-05-01T12:43:56.860Z,7.47
2019-05-01T12:46:44.355Z,13.15
2019-05-01T12:49:15.810Z,7.45
2019-05-01T12:51:47.411Z,10.35
2019-05-01T12:54:21.590Z,6.53
2019-05-01T12:56:56.030Z,9.48
2019-05-01T12:59:25.975Z,7.50
2019-05-01T13:01:55.934Z,9.85
2019-05-01T13:04:25.959Z,7.15
2019-05-01T13:06:58.247Z,10.32
2019-05-01T13:09:28.229Z,7.83
2019-05-01T13:11:58.146Z,7.45
2019-05-01T13:14:28.010Z,11.03
2019-05-01T13:16:57.852Z,8.83
2019-05-01T13:19:27.755Z,10.03
2019-05-01T13:21:57.950Z,8.80
2019-05-01T13:24:28.073Z,7.42
2019-05-01T13:26:59.586Z,14.75
2019-05-01T13:29:37.073Z,12.68
2019-05-01T13:32:11.205Z,9.28
2019-05-01T13:34:41.089Z,10.10
2019-05-01T13:37:10.982Z,12.68
2019-05-01T13:39:40.884Z,8.15
2019-05-01T13:42:10.761Z,9.03
2019-05-01T13:44:41.491Z,7.20
2019-05-01T13:47:11.367Z,13.18
2019-05-01T13:49:41.484Z,10.75
2019-05-01T13:52:11.523Z,15.00
2019-05-01T13:54:41.334Z,7.50
2019-05-01T13:57:11.432Z,8.43
2019-05-01T13:59:41.280Z,5.67
2019-05-01T14:02:11.137Z,6.50
2019-05-01T14:04:41.179Z,7.65
2019-05-01T14:07:16.702Z,9.30
2019-05-01T14:09:42.769Z,17.32
2019-05-01T14:12:12.676Z,11.73
2019-05-01T14:14:42.695Z,10.13
2019-05-01T14:17:12.609Z,9.28
2019-05-01T14:19:44.066Z,11.65
2019-05-01T14:22:21.390Z,7.03
2019-05-01T14:24:55.607Z,10.72
2019-05-01T14:27:26.565Z,10.23
2019-05-01T14:29:56.521Z,8.08
2019-05-01T14:32:26.444Z,5.80
2019-05-01T14:34:56.323Z,5.58
2019-05-01T14:37:29.870Z,10.93
2019-05-01T14:39:59.038Z,9.20
2019-05-01T14:42:28.920Z,7.67
2019-05-01T14:44:59.203Z,7.97
2019-05-01T14:47:29.094Z,10.50
2019-05-01T14:49:59.847Z,9.33
2019-05-01T14:52:29.669Z,7.40
2019-05-01T14:54:59.563Z,7.15
2019-05-01T14:57:29.515Z,5.58
2019-05-01T14:59:59.913Z,6.30
2019-05-01T15:02:30.199Z,10.53
2019-05-01T15:05:00.124Z,7.42
2019-05-01T15:07:42.823Z,11.08
2019-05-01T15:10:01.640Z,5.42
2019-05-01T15:12:32.530Z,5.05
2019-05-01T15:15:20.273Z,8.93
2019-05-01T15:17:51.737Z,18.23
2019-05-01T15:20:21.624Z,11.73
2019-05-01T15:22:51.445Z,14.00
2019-05-01T15:25:21.379Z,9.60
2019-05-01T15:27:51.229Z,8.55
2019-05-01T15:30:21.137Z,10.78
2019-05-01T15:32:51.025Z,9.30
2019-05-01T15:35:21.203Z,10.03
2019-05-01T15:37:57.058Z,5.75
2019-05-01T15:40:30.424Z,9.40
2019-05-01T15:43:17.016Z,5.05
2019-05-01T15:45:46.999Z,7.40
2019-05-01T15:48:16.792Z,9.35
2019-05-01T15:50:46.679Z,8.45
2019-05-01T15:53:16.595Z,11.10
2019-05-01T15:55:46.609Z,8.08
2019-05-01T15:58:16.478Z,11.95
2019-05-01T16:00:46.392Z,7.45
2019-05-01T16:03:16.257Z,10.98
2019-05-01T16:05:45.994Z,10.70
2019-05-01T16:08:15.923Z,7.97
2019-05-01T16:10:47.325Z,14.30
2019-05-01T16:13:17.205Z,9.98
2019-05-01T16:15:46.997Z,20.23
2019-05-01T16:18:16.819Z,10.68
2019-05-01T16:20:46.609Z,10.58
2019-05-01T16:23:16.396Z,6.90
2019-05-01T16:25:46.136Z,5.67
2019-05-01T16:28:16.061Z,11.22
2019-05-01T16:30:45.959Z,7.00
2019-05-01T16:33:15.851Z,6.17
2019-05-01T16:35:45.662Z,6.58
2019-05-01T16:38:23.136Z,11.97
2019-05-01T16:40:59.055Z,6.90
2019-05-01T16:43:28.869Z,6.08
2019-05-01T16:45:59.685Z,6.87
2019-05-01T16:48:29.674Z,8.88
2019-05-01T16:50:59.574Z,9.23
2019-05-01T16:53:29.466Z,7.25
2019-05-01T16:55:59.296Z,5.65
2019-05-01T16:58:29.254Z,7.20
2019-05-01T17:01:03.601Z,7.30
2019-05-01T17:03:37.757Z,6.87
2019-05-01T17:06:10.199Z,9.20
2019-05-01T17:08:44.566Z,11.43
2019-05-01T17:11:14.555Z,8.45
2019-05-01T17:13:44.376Z,9.00
2019-05-01T17:16:14.221Z,9.13
2019-05-01T17:18:44.100Z,7.30
2019-05-01T17:21:14.130Z,7.85
2019-05-01T17:23:44.151Z,10.00
2019-05-01T17:26:14.030Z,8.05
2019-05-01T17:28:44.038Z,4.55
2019-05-01T17:31:13.931Z,14.33
2019-05-01T17:33:44.187Z,22.75
2019-05-01T17:36:14.083Z,30.92
2019-05-01T17:38:49.800Z,16.35
2019-05-01T17:41:15.555Z,14.75
2019-05-01T17:43:49.361Z,12.65
2019-05-01T17:46:16.919Z,10.90
2019-05-01T17:48:46.755Z,8.93
2019-05-01T17:51:19.601Z,7.47
2019-05-01T17:53:50.500Z,6.22
2019-05-01T17:56:26.114Z,6.15
2019-05-01T17:58:51.932Z,6.58
2019-05-01T18:01:39.308Z,6.20
2019-05-01T18:04:16.782Z,11.35
2019-05-01T18:06:48.390Z,8.25
2019-05-01T18:09:18.568Z,4.75
2019-05-01T18:11:52.175Z,7.62
2019-05-01T18:14:20.299Z,7.22
2019-05-01T18:16:50.200Z,6.60
2019-05-01T18:19:20.078Z,7.60
2019-05-01T18:21:52.154Z,9.45
2019-05-01T18:24:40.109Z,3.98
2019-05-01T18:27:27.660Z,7.22
2019-05-01T18:29:59.021Z,8.70
2019-05-01T18:32:30.497Z,5.03
2019-05-01T18:35:00.487Z,8.95
2019-05-01T18:37:37.893Z,6.17
2019-05-01T18:40:09.583Z,7.60
2019-05-01T18:42:39.490Z,7.62
2019-05-01T18:45:12.489Z,5.78
2019-05-01T18:47:42.297Z,2.35
2019-05-01T18:50:13.595Z,4.08
2019-05-01T18:52:43.546Z,5.72
2019-05-01T18:55:13.527Z,5.97
2019-05-01T18:57:43.311Z,5.00
2019-05-01T19:00:14.293Z,4.92
2019-05-01T19:02:44.207Z,5.40
2019-05-01T19:05:14.121Z,3.12
2019-05-01T19:07:43.948Z,5.05
2019-05-01T19:10:13.866Z,3.62
2019-05-01T19:12:43.675Z,3.80
2019-05-01T19:15:13.508Z,3.67
2019-05-01T19:17:43.377Z,5.60
2019-05-01T19:20:13.213Z,7.95
2019-05-01T19:22:43.067Z,6.90
2019-05-01T19:25:16.346Z,5.60
2019-05-01T19:27:45.625Z,2.85
2019-05-01T19:30:16.809Z,6.50
2019-05-01T19:32:47.069Z,4.05
2019-05-01T19:35:16.899Z,5.30
2019-05-01T19:37:46.822Z,5.72
2019-05-01T19:40:16.857Z,4.22
2019-05-01T19:42:46.643Z,4.05
2019-05-01T19:45:19.467Z,8.38
2019-05-01T19:47:49.438Z,7.87
2019-05-01T19:50:19.247Z,9.43
2019-05-01T19:52:49.064Z,6.42
2019-05-01T19:55:19.114Z,6.35
2019-05-01T19:57:49.008Z,5.65
2019-05-01T20:00:23.378Z,5.95
2019-05-01T20:02:54.266Z,4.85
2019-05-01T20:05:27.495Z,5.08
2019-05-01T20:07:57.889Z,12.82
2019-05-01T20:10:27.959Z,8.80
2019-05-01T20:12:57.828Z,10.23
2019-05-01T20:15:27.832Z,14.23
2019-05-01T20:17:57.643Z,10.20
2019-05-01T20:20:27.396Z,10.90
2019-05-01T20:22:57.304Z,12.68
2019-05-01T20:25:27.184Z,19.98
2019-05-01T20:27:57.482Z,8.83
2019-05-01T20:30:27.382Z,10.85
2019-05-01T20:32:58.160Z,6.80
2019-05-01T20:35:30.207Z,8.75
2019-05-01T20:38:00.084Z,8.03
2019-05-01T20:40:29.964Z,5.40
2019-05-01T20:43:01.107Z,4.80
2019-05-01T20:45:31.371Z,9.48
2019-05-01T20:48:01.321Z,3.65
2019-05-01T20:50:31.151Z,8.18
2019-05-01T20:53:00.953Z,7.07
2019-05-01T20:55:30.786Z,7.72
2019-05-01T20:58:02.236Z,5.90
2019-05-01T21:00:32.046Z,5.97
2019-05-01T21:03:01.867Z,6.37
2019-05-01T21:05:36.011Z,4.30
2019-05-01T21:08:16.548Z,5.05
2019-05-01T21:10:51.129Z,4.03
2019-05-01T21:13:23.309Z,3.95
2019-05-01T21:15:56.350Z,3.27
2019-05-01T21:18:26.058Z,5.62
2019-05-01T21:20:56.590Z,4.10
2019-05-01T21:23:26.421Z,3.57
2019-05-01T21:25:56.311Z,6.35
2019-05-01T21:28:27.134Z,3.83
2019-05-01T21:30:56.884Z,4.33
2019-05-01T21:33:26.746Z,4.93
2019-05-01T21:35:59.455Z,6.10
2019-05-01T21:38:28.124Z,2.85
2019-05-01T21:40:57.878Z,5.90
2019-05-01T21:43:27.917Z,4.17
2019-05-01T21:45:59.070Z,4.85
2019-05-01T21:48:28.965Z,2.67
2019-05-01T21:51:03.360Z,3.87
2019-05-01T21:53:30.306Z,5.25
2019-05-01T21:56:02.124Z,2.33
2019-05-01T21:58:33.376Z,4.22
2019-05-01T22:01:03.417Z,4.70
2019-05-01T22:03:33.408Z,4.12
2019-05-01T22:06:03.395Z,3.08
2019-05-01T22:08:34.414Z,3.08
2019-05-01T22:11:05.171Z,3.98
2019-05-01T22:13:35.076Z,3.90
2019-05-01T22:16:09.472Z,4.20
2019-05-01T22:18:40.929Z,4.22
2019-05-01T22:21:12.463Z,4.50
2019-05-01T22:24:00.138Z,2.47
2019-05-01T22:26:31.574Z,4.40
2019-05-01T22:29:05.689Z,3.55
2019-05-01T22:31:52.859Z,5.15
2019-05-01T22:34:41.360Z,4.15
2019-05-01T22:37:11.257Z,6.95
2019-05-01T22:39:42.633Z,2.27
2019-05-01T22:42:12.612Z,6.78
2019-05-01T22:44:42.435Z,4.78
2019-05-01T22:47:15.111Z,3.40
2019-05-01T22:49:43.765Z,3.72
2019-05-01T22:52:13.560Z,4.03
2019-05-01T22:54:44.984Z,6.27
2019-05-01T22:57:15.748Z,5.65
2019-05-01T22:59:45.573Z,10.50
2019-05-01T23:02:17.031Z,4.00
2019-05-01T23:04:48.330Z,5.90
2019-05-01T23:07:18.651Z,3.80
2019-05-01T23:09:48.500Z,4.22
2019-05-01T23:12:18.305Z,3.77
2019-05-01T23:14:48.121Z,4.50
2019-05-01T23:17:22.315Z,6.37
2019-05-01T23:19:52.281Z,4.28
2019-05-01T23:22:23.962Z,3.87
2019-05-01T23:24:53.717Z,4.25
2019-05-01T23:27:24.268Z,5.10
2019-05-01T23:29:55.041Z,6.10
2019-05-01T23:32:24.863Z,5.28
2019-05-01T23:34:54.588Z,4.50
2019-05-01T23:37:25.999Z,5.33
2019-05-01T23:39:55.904Z,5.87
2019-05-01T23:42:25.717Z,5.62
2019-05-01T23:44:55.528Z,5.72
2019-05-01T23:47:25.387Z,4.20
2019-05-01T23:49:55.130Z,5.53
2019-05-01T23:52:24.960Z,4.87
2019-05-01T23:54:54.687Z,5.40
2019-05-01T23:57:24.515Z,5.30
2019-05-01T23:59:54.247Z,6.67
